createdAt,value
2018-11-14T00:00:50.408Z,16.45
2018-11-14T00:03:24.815Z,14.78
2018-11-14T00:05:59.767Z,16.10
2018-11-14T00:08:34.034Z,13.28
2018-11-14T00:11:08.397Z,15.93
2018-11-14T00:13:42.681Z,17.48
2018-11-14T00:16:17.102Z,17.20
2018-11-14T00:18:51.436Z,16.77
2018-11-14T00:21:25.754Z,17.77
2018-11-14T00:24:00.060Z,19.30
2018-11-14T00:26:34.380Z,16.80
2018-11-14T00:29:08.608Z,16.77
2018-11-14T00:31:42.880Z,17.77
2018-11-14T00:34:18.312Z,15.85
2018-11-14T00:36:52.586Z,17.50
2018-11-14T00:39:26.998Z,17.45
2018-11-14T00:42:01.339Z,17.85
2018-11-14T00:44:35.673Z,18.00
2018-11-14T00:47:10.048Z,18.80
2018-11-14T00:49:44.426Z,17.50
2018-11-14T00:52:18.837Z,18.25
2018-11-14T00:54:53.198Z,17.85
2018-11-14T00:57:27.538Z,20.90
2018-11-14T01:00:01.882Z,20.70
2018-11-14T01:02:38.097Z,21.85
2018-11-14T01:05:13.336Z,21.40
2018-11-14T01:07:47.500Z,21.17
2018-11-14T01:10:22.543Z,20.97
2018-11-14T01:12:57.471Z,21.97
2018-11-14T01:15:31.855Z,22.22
2018-11-14T01:18:06.505Z,22.73
2018-11-14T01:20:40.700Z,23.50
2018-11-14T01:23:14.886Z,23.87
2018-11-14T01:25:49.162Z,25.88
2018-11-14T01:28:23.423Z,29.27
2018-11-14T01:30:58.779Z,25.27
2018-11-14T01:33:33.052Z,24.15
2018-11-14T01:36:07.259Z,26.07
2018-11-14T01:38:41.593Z,25.68
2018-11-14T01:41:15.983Z,26.15
2018-11-14T01:43:50.276Z,26.02
2018-11-14T01:46:24.596Z,27.25
2018-11-14T01:48:58.945Z,26.57
2018-11-14T01:51:33.221Z,28.07
2018-11-14T01:54:07.543Z,27.25
2018-11-14T01:56:41.945Z,26.07
2018-11-14T01:59:16.255Z,27.95
2018-11-14T02:01:50.422Z,24.80
2018-11-14T02:04:24.886Z,28.25
2018-11-14T02:06:59.068Z,25.82
2018-11-14T02:09:33.408Z,26.02
2018-11-14T02:12:07.700Z,26.05
2018-11-14T02:14:42.482Z,24.90
2018-11-14T02:17:17.031Z,25.80
2018-11-14T02:19:51.253Z,26.60
2018-11-14T02:22:25.458Z,24.95
2018-11-14T02:24:59.836Z,25.15
2018-11-14T02:27:34.153Z,25.68
2018-11-14T02:30:13.494Z,26.68
2018-11-14T02:32:48.270Z,26.68
2018-11-14T02:35:22.686Z,24.82
2018-11-14T02:37:56.963Z,26.17
2018-11-14T02:40:31.323Z,25.35
2018-11-14T02:43:05.611Z,28.00
2018-11-14T02:45:39.859Z,28.57
2018-11-14T02:48:14.252Z,27.15
2018-11-14T02:50:53.089Z,27.55
2018-11-14T02:53:27.562Z,27.80
2018-11-14T02:56:07.015Z,27.45
2018-11-14T02:58:41.213Z,26.42
2018-11-14T03:01:15.488Z,27.00
2018-11-14T03:03:50.749Z,27.20
2018-11-14T03:06:25.128Z,25.60
2018-11-14T03:08:59.548Z,27.75
2018-11-14T03:11:33.763Z,25.05
2018-11-14T03:14:08.110Z,24.52
2018-11-14T03:16:43.047Z,26.57
2018-11-14T03:19:17.580Z,28.27
2018-11-14T03:21:52.092Z,24.65
2018-11-14T03:24:26.430Z,21.68
2018-11-14T03:27:01.002Z,27.80
2018-11-14T03:29:35.225Z,24.70
2018-11-14T03:32:09.572Z,25.12
2018-11-14T03:34:43.746Z,25.92
2018-11-14T03:37:18.102Z,22.98
2018-11-14T03:39:53.420Z,23.10
2018-11-14T03:42:27.830Z,23.15
2018-11-14T03:45:02.170Z,23.70
2018-11-14T03:47:36.601Z,24.15
2018-11-14T03:50:11.195Z,22.27
2018-11-14T03:52:45.821Z,23.92
2018-11-14T03:55:20.326Z,22.77
2018-11-14T03:57:54.801Z,23.57
2018-11-14T04:00:29.089Z,24.20
2018-11-14T04:03:03.308Z,25.72
2018-11-14T04:05:37.784Z,27.30
2018-11-14T04:08:12.005Z,24.82
2018-11-14T04:10:46.650Z,23.90
2018-11-14T04:13:21.015Z,26.00
2018-11-14T04:15:55.193Z,24.95
2018-11-14T04:18:29.579Z,26.87
2018-11-14T04:21:03.919Z,27.37
2018-11-14T04:23:42.198Z,25.45
2018-11-14T04:26:16.454Z,28.27
2018-11-14T04:28:50.880Z,25.68
2018-11-14T04:31:25.618Z,26.85
2018-11-14T04:33:59.948Z,26.42
2018-11-14T04:36:34.249Z,25.80
2018-11-14T04:39:09.488Z,25.77
2018-11-14T04:41:43.878Z,26.20
2018-11-14T04:44:18.282Z,27.27
2018-11-14T04:46:52.609Z,25.62
2018-11-14T04:49:27.154Z,25.45
2018-11-14T04:52:01.489Z,24.87
2018-11-14T04:54:35.709Z,27.62
2018-11-14T04:57:10.247Z,26.85
2018-11-14T04:59:44.749Z,26.00
2018-11-14T05:02:19.031Z,25.90
2018-11-14T05:04:53.264Z,27.80
2018-11-14T05:07:27.708Z,25.52
2018-11-14T05:10:02.179Z,25.02
2018-11-14T05:12:36.362Z,24.63
2018-11-14T05:15:12.265Z,26.50
2018-11-14T05:17:47.163Z,27.42
2018-11-14T05:20:22.426Z,28.45
2018-11-14T05:22:56.816Z,26.07
2018-11-14T05:25:31.304Z,25.02
2018-11-14T05:28:05.879Z,25.50
2018-11-14T05:30:40.277Z,29.90
2018-11-14T05:33:14.633Z,25.55
2018-11-14T05:35:48.902Z,26.17
2018-11-14T05:38:23.276Z,26.60
2018-11-14T05:40:57.472Z,26.20
2018-11-14T05:43:31.778Z,25.62
2018-11-14T05:46:06.228Z,26.85
2018-11-14T05:48:40.674Z,28.07
2018-11-14T05:51:15.032Z,24.70
2018-11-14T05:53:49.508Z,25.97
2018-11-14T05:56:23.682Z,25.85
2018-11-14T05:58:58.140Z,24.07
2018-11-14T06:01:32.477Z,28.25
2018-11-14T06:04:06.850Z,27.05
2018-11-14T06:06:41.698Z,25.45
2018-11-14T06:09:16.075Z,27.17
2018-11-14T06:11:50.385Z,24.55
2018-11-14T06:14:24.687Z,23.25
2018-11-14T06:16:59.381Z,24.65
2018-11-14T06:19:33.665Z,28.02
2018-11-14T06:22:08.216Z,27.45
2018-11-14T06:24:42.443Z,23.27
2018-11-14T06:27:16.886Z,26.10
2018-11-14T06:29:51.778Z,27.50
2018-11-14T06:32:26.470Z,24.12
2018-11-14T06:35:00.866Z,25.23
2018-11-14T06:37:35.831Z,26.45
2018-11-14T06:40:11.448Z,26.77
2018-11-14T06:42:45.944Z,25.23
2018-11-14T06:45:21.459Z,26.77
2018-11-14T06:47:57.170Z,26.60
2018-11-14T06:50:32.456Z,25.20
2018-11-14T06:53:07.397Z,26.17
2018-11-14T06:55:41.971Z,27.45
2018-11-14T06:58:16.632Z,28.27
2018-11-14T07:00:51.176Z,25.15
2018-11-14T07:03:25.786Z,29.10
2018-11-14T07:06:01.391Z,26.45
2018-11-14T07:08:35.865Z,26.37
2018-11-14T07:11:10.677Z,29.80
2018-11-14T07:13:45.030Z,25.72
2018-11-14T07:16:19.521Z,27.77
2018-11-14T07:18:53.837Z,27.00
2018-11-14T07:21:28.345Z,27.02
2018-11-14T07:24:02.789Z,26.17
2018-11-14T07:26:37.122Z,26.12
2018-11-14T07:29:11.541Z,29.30
2018-11-14T07:31:45.912Z,27.15
2018-11-14T07:34:20.392Z,26.05
2018-11-14T07:36:54.881Z,27.22
2018-11-14T07:39:29.216Z,24.65
2018-11-14T07:42:03.521Z,25.10
2018-11-14T07:44:37.956Z,24.75
2018-11-14T07:47:12.297Z,25.32
2018-11-14T07:49:46.900Z,25.23
2018-11-14T07:52:21.325Z,23.73
2018-11-14T07:54:56.139Z,22.55
2018-11-14T07:57:30.536Z,24.67
2018-11-14T08:00:08.577Z,23.92
2018-11-14T08:02:42.898Z,22.67
2018-11-14T08:05:17.525Z,21.50
2018-11-14T08:07:51.895Z,22.50
2018-11-14T08:10:26.256Z,21.90
2018-11-14T08:13:00.664Z,21.12
2018-11-14T08:15:35.005Z,19.90
2018-11-14T08:18:09.308Z,20.35
2018-11-14T08:20:43.957Z,21.12
2018-11-14T08:23:18.367Z,17.77
2018-11-14T08:25:52.805Z,18.62
2018-11-14T08:28:27.149Z,17.87
2018-11-14T08:31:01.533Z,20.80
2018-11-14T08:33:36.037Z,20.92
2018-11-14T08:36:10.357Z,17.55
2018-11-14T08:38:44.668Z,17.20
2018-11-14T08:41:19.846Z,18.45
2018-11-14T08:43:54.242Z,17.73
2018-11-14T08:46:28.554Z,17.23
2018-11-14T08:49:02.969Z,18.95
2018-11-14T08:51:38.010Z,16.20
2018-11-14T08:54:12.331Z,16.23
2018-11-14T08:56:47.218Z,15.70
2018-11-14T08:59:21.738Z,14.53
2018-11-14T09:01:56.191Z,14.18
2018-11-14T09:04:30.498Z,15.45
2018-11-14T09:07:05.116Z,13.30
2018-11-14T09:09:39.565Z,13.93
2018-11-14T09:12:14.099Z,13.25
2018-11-14T09:14:48.552Z,13.18
2018-11-14T09:17:22.774Z,11.85
2018-11-14T09:19:57.366Z,10.87
2018-11-14T09:22:32.585Z,10.90
2018-11-14T09:25:10.102Z,10.80
2018-11-14T09:27:45.013Z,9.43
2018-11-14T09:30:20.711Z,8.40
2018-11-14T09:32:55.428Z,9.77
2018-11-14T09:35:29.756Z,7.30
2018-11-14T09:38:04.037Z,7.90
2018-11-14T09:40:38.561Z,6.90
2018-11-14T09:43:13.070Z,6.63
2018-11-14T09:45:47.400Z,5.37
2018-11-14T09:48:22.057Z,6.33
2018-11-14T09:50:56.776Z,6.23
2018-11-14T09:53:31.263Z,6.93
2018-11-14T09:56:06.073Z,6.10
2018-11-14T09:58:40.708Z,6.30
2018-11-14T10:01:14.877Z,6.33
2018-11-14T10:03:49.240Z,6.80
2018-11-14T10:06:23.718Z,8.50
2018-11-14T10:08:57.954Z,7.07
2018-11-14T10:11:32.321Z,6.47
2018-11-14T10:14:07.212Z,7.77
2018-11-14T10:16:41.559Z,5.80
2018-11-14T10:19:16.001Z,5.70
2018-11-14T10:21:50.512Z,6.70
2018-11-14T10:24:24.976Z,5.70
2018-11-14T10:26:59.555Z,6.67
2018-11-14T10:29:34.013Z,6.70
2018-11-14T10:32:08.213Z,6.10
2018-11-14T10:34:42.690Z,4.80
2018-11-14T10:37:17.477Z,5.07
2018-11-14T10:39:52.031Z,4.57
2018-11-14T10:42:27.146Z,5.00
2018-11-14T10:45:01.566Z,4.20
2018-11-14T10:47:35.919Z,6.47
2018-11-14T10:50:14.005Z,4.17
2018-11-14T10:52:48.412Z,3.47
2018-11-14T10:55:23.464Z,4.27
2018-11-14T10:57:57.866Z,3.70
2018-11-14T11:00:37.549Z,4.10
2018-11-14T11:03:17.004Z,3.90
2018-11-14T11:05:56.943Z,4.73
2018-11-14T11:08:37.169Z,4.03
2018-11-14T11:11:16.924Z,4.10
2018-11-14T11:14:09.097Z,4.80
2018-11-14T11:16:49.448Z,4.77
2018-11-14T11:19:25.713Z,3.23
2018-11-14T11:22:00.340Z,4.17
2018-11-14T11:24:34.845Z,3.27
2018-11-14T11:27:09.168Z,3.10
2018-11-14T11:29:43.572Z,3.60
2018-11-14T11:32:18.225Z,3.70
2018-11-14T11:34:53.286Z,3.17
2018-11-14T11:37:27.984Z,3.60
2018-11-14T11:40:02.561Z,3.40
2018-11-14T11:42:36.852Z,3.57
2018-11-14T11:45:11.502Z,3.30
2018-11-14T11:47:46.120Z,2.90
2018-11-14T11:50:20.539Z,3.17
2018-11-14T11:52:55.366Z,3.10
2018-11-14T11:55:29.664Z,2.80
2018-11-14T11:58:04.217Z,3.07
2018-11-14T12:00:38.771Z,3.27
2018-11-14T12:03:13.177Z,3.33
2018-11-14T12:05:47.506Z,2.90
2018-11-14T12:08:21.901Z,3.17
2018-11-14T12:10:56.430Z,3.00
2018-11-14T12:13:30.904Z,3.13
2018-11-14T12:16:05.474Z,3.60
2018-11-14T12:18:39.913Z,2.87
2018-11-14T12:21:14.317Z,3.37
2018-11-14T12:23:48.773Z,3.87
2018-11-14T12:26:23.175Z,2.90
2018-11-14T12:28:57.497Z,2.80
2018-11-14T12:31:31.906Z,2.93
2018-11-14T12:34:06.430Z,3.30
2018-11-14T12:36:40.745Z,3.33
2018-11-14T12:39:15.086Z,3.20
2018-11-14T12:41:49.550Z,2.53
2018-11-14T12:44:24.114Z,3.67
2018-11-14T12:46:58.576Z,3.70
2018-11-14T12:49:32.906Z,3.63
2018-11-14T12:52:07.680Z,3.00
2018-11-14T12:54:42.101Z,3.03
2018-11-14T12:57:16.305Z,2.90
2018-11-14T12:59:50.796Z,3.73
2018-11-14T13:02:25.196Z,2.73
2018-11-14T13:04:59.529Z,3.63
2018-11-14T13:07:33.987Z,2.83
2018-11-14T13:10:09.685Z,3.40
2018-11-14T13:12:44.621Z,4.17
2018-11-14T13:15:19.890Z,3.70
2018-11-14T13:17:54.166Z,2.70
2018-11-14T13:20:28.449Z,3.60
2018-11-14T13:23:03.242Z,3.17
2018-11-14T13:25:37.854Z,2.70
2018-11-14T13:28:12.253Z,2.30
2018-11-14T13:30:46.827Z,3.30
2018-11-14T13:33:21.268Z,2.70
2018-11-14T13:35:56.068Z,2.73
2018-11-14T13:38:30.723Z,3.17
2018-11-14T13:41:05.422Z,3.43
2018-11-14T13:43:39.881Z,2.93
2018-11-14T13:46:14.325Z,2.10
2018-11-14T13:48:49.243Z,2.20
2018-11-14T13:51:23.605Z,2.87
2018-11-14T13:53:57.887Z,3.20
2018-11-14T13:56:32.429Z,3.33
2018-11-14T13:59:06.858Z,3.00
2018-11-14T14:01:41.036Z,3.13
2018-11-14T14:04:15.724Z,3.20
2018-11-14T14:06:50.146Z,3.23
2018-11-14T14:09:24.616Z,2.37
2018-11-14T14:11:58.838Z,2.90
2018-11-14T14:14:33.054Z,2.33
2018-11-14T14:17:07.302Z,3.10
2018-11-14T14:19:41.583Z,2.50
2018-11-14T14:22:16.066Z,2.90
2018-11-14T14:24:50.257Z,3.07
2018-11-14T14:27:24.502Z,2.50
2018-11-14T14:29:58.973Z,2.80
2018-11-14T14:32:33.370Z,2.67
2018-11-14T14:35:08.689Z,2.30
2018-11-14T14:37:43.060Z,2.57
2018-11-14T14:40:18.816Z,2.77
2018-11-14T14:42:52.997Z,2.33
2018-11-14T14:45:27.449Z,4.23
2018-11-14T14:48:01.800Z,2.70
2018-11-14T14:50:36.034Z,2.73
2018-11-14T14:53:10.516Z,2.83
2018-11-14T14:55:44.914Z,2.83
2018-11-14T14:58:19.114Z,2.60
2018-11-14T15:00:53.329Z,2.80
2018-11-14T15:03:27.630Z,2.50
2018-11-14T15:06:01.888Z,2.83
2018-11-14T15:08:36.299Z,3.40
2018-11-14T15:11:10.566Z,3.60
2018-11-14T15:13:45.632Z,3.77
2018-11-14T15:16:20.065Z,4.60
2018-11-14T15:18:54.372Z,7.40
2018-11-14T15:21:28.721Z,13.00
2018-11-14T15:24:09.735Z,3.53
2018-11-14T15:26:44.147Z,3.97
2018-11-14T15:29:18.666Z,4.00
2018-11-14T15:31:53.119Z,3.97
2018-11-14T15:34:27.439Z,2.60
2018-11-14T15:37:01.914Z,2.87
2018-11-14T15:39:36.283Z,3.07
2018-11-14T15:42:10.552Z,2.53
2018-11-14T15:44:45.445Z,3.00
2018-11-14T15:47:20.326Z,2.97
2018-11-14T15:49:54.706Z,2.57
2018-11-14T15:52:29.461Z,2.40
2018-11-14T15:55:05.067Z,14.40
2018-11-14T15:57:45.434Z,4.10
2018-11-14T16:00:23.465Z,5.40
2018-11-14T16:02:57.936Z,3.80
2018-11-14T16:05:33.164Z,3.00
2018-11-14T16:08:07.729Z,3.10
2018-11-14T16:10:42.172Z,5.10
2018-11-14T16:13:16.788Z,5.10
2018-11-14T16:15:51.551Z,5.40
2018-11-14T16:18:25.926Z,5.40
2018-11-14T16:21:00.737Z,5.27
2018-11-14T16:23:35.402Z,4.93
2018-11-14T16:26:10.037Z,4.83
2018-11-14T16:28:44.732Z,4.50
2018-11-14T16:31:39.727Z,3.80
2018-11-14T16:34:17.197Z,3.80
2018-11-14T16:36:51.744Z,4.50
2018-11-14T16:39:26.057Z,3.77
2018-11-14T16:42:00.483Z,3.90
2018-11-14T16:44:34.752Z,3.53
2018-11-14T16:47:09.129Z,3.90
2018-11-14T16:49:43.892Z,4.40
2018-11-14T16:52:18.259Z,3.77
2018-11-14T16:54:52.607Z,6.07
2018-11-14T16:57:27.243Z,3.50
2018-11-14T17:00:01.560Z,6.43
2018-11-14T17:02:35.773Z,5.50
2018-11-14T17:05:10.265Z,4.70
2018-11-14T17:07:44.682Z,4.00
2018-11-14T17:10:20.441Z,4.43
2018-11-14T17:12:56.613Z,5.27
2018-11-14T17:15:31.803Z,5.53
2018-11-14T17:18:06.190Z,6.30
2018-11-14T17:20:40.761Z,5.90
2018-11-14T17:23:15.282Z,4.50
2018-11-14T17:25:49.649Z,5.50
2018-11-14T17:28:24.243Z,5.67
2018-11-14T17:30:58.629Z,5.90
2018-11-14T17:33:33.646Z,26.10
2018-11-14T17:36:08.212Z,31.30
2018-11-14T17:38:42.623Z,38.53
2018-11-14T17:41:17.106Z,20.27
2018-11-14T17:43:51.695Z,12.73
2018-11-14T17:46:26.114Z,18.50
2018-11-14T17:49:02.750Z,13.37
2018-11-14T17:51:41.241Z,8.53
2018-11-14T17:54:16.859Z,7.75
2018-11-14T17:56:51.420Z,7.15
2018-11-14T17:59:32.573Z,9.70
2018-11-14T18:02:07.526Z,8.23
2018-11-14T18:04:42.855Z,7.47
2018-11-14T18:07:18.410Z,9.57
2018-11-14T18:09:55.054Z,10.32
2018-11-14T18:12:29.718Z,8.55
2018-11-14T18:17:51.316Z,8.10
2018-11-14T18:20:28.931Z,7.83
2018-11-14T18:23:04.545Z,7.50
2018-11-14T18:28:27.296Z,8.15
2018-11-14T18:31:02.137Z,8.83
2018-11-14T18:33:37.520Z,8.55
2018-11-14T18:36:13.646Z,7.72
2018-11-14T18:38:52.952Z,8.60
2018-11-14T18:41:28.150Z,9.58
2018-11-14T18:44:02.694Z,9.85
2018-11-14T18:46:38.138Z,9.33
2018-11-14T18:49:12.911Z,9.68
2018-11-14T18:51:49.471Z,9.13
2018-11-14T18:54:28.326Z,9.10
2018-11-14T18:57:02.857Z,10.50
2018-11-14T18:59:37.401Z,11.95
2018-11-14T19:02:13.437Z,12.58
2018-11-14T19:04:47.843Z,10.93
2018-11-14T19:07:22.511Z,12.40
2018-11-14T19:09:56.851Z,13.55
2018-11-14T19:12:31.478Z,12.18
2018-11-14T19:15:09.097Z,16.32
2018-11-14T19:17:43.640Z,13.15
2018-11-14T19:20:23.350Z,11.25
2018-11-14T19:22:58.730Z,12.95
2018-11-14T19:25:34.589Z,12.10
2018-11-14T19:28:09.737Z,13.30
2018-11-14T19:30:46.292Z,15.05
2018-11-14T19:33:21.119Z,14.10
2018-11-14T19:35:55.560Z,14.53
2018-11-14T19:38:30.324Z,13.45
2018-11-14T19:41:04.980Z,13.43
2018-11-14T19:43:39.351Z,14.28
2018-11-14T19:46:13.817Z,14.15
2018-11-14T19:48:49.435Z,16.55
2018-11-14T19:51:25.071Z,15.23
2018-11-14T19:53:59.753Z,16.57
2018-11-14T19:56:34.490Z,17.82
2018-11-14T19:59:09.018Z,19.95
2018-11-14T20:01:44.478Z,18.95
2018-11-14T20:04:28.306Z,19.60
2018-11-14T20:07:02.863Z,18.15
2018-11-14T20:09:37.292Z,25.75
2018-11-14T20:12:11.852Z,17.35
2018-11-14T20:14:46.593Z,24.00
2018-11-14T20:17:21.212Z,19.60
2018-11-14T20:20:02.618Z,21.20
2018-11-14T20:22:36.856Z,21.93
2018-11-14T20:25:11.244Z,18.73
2018-11-14T20:27:45.853Z,15.90
2018-11-14T20:30:22.494Z,16.55
2018-11-14T20:32:57.887Z,20.60
2018-11-14T20:35:32.375Z,16.52
2018-11-14T20:38:06.829Z,19.00
2018-11-14T20:40:42.495Z,16.85
2018-11-14T20:43:17.204Z,17.12
2018-11-14T20:45:51.609Z,18.80
2018-11-14T20:48:26.149Z,18.50
2018-11-14T20:51:00.629Z,18.17
2018-11-14T20:53:36.765Z,17.37
2018-11-14T20:56:11.059Z,16.50
2018-11-14T20:58:45.414Z,17.35
2018-11-14T21:01:19.803Z,17.60
2018-11-14T21:03:54.513Z,18.20
2018-11-14T21:06:29.556Z,17.57
2018-11-14T21:09:05.487Z,17.75
2018-11-14T21:11:40.283Z,17.48
2018-11-14T21:14:14.593Z,17.90
2018-11-14T21:16:48.986Z,19.90
2018-11-14T21:19:23.486Z,18.40
2018-11-14T21:21:58.106Z,19.30
2018-11-14T21:24:32.451Z,19.17
2018-11-14T21:27:06.805Z,21.77
2018-11-14T21:29:41.114Z,19.20
2018-11-14T21:32:15.492Z,18.05
2018-11-14T21:34:49.912Z,18.57
2018-11-14T21:37:24.252Z,18.27
2018-11-14T21:39:58.749Z,19.07
2018-11-14T21:42:33.053Z,19.27
2018-11-14T21:45:09.385Z,18.65
2018-11-14T21:47:49.413Z,20.52
2018-11-14T21:50:24.752Z,21.05
2018-11-14T21:52:59.185Z,18.48
2018-11-14T21:55:33.456Z,19.92
2018-11-14T21:58:07.864Z,20.57
2018-11-14T22:00:42.395Z,19.95
2018-11-14T22:03:16.647Z,19.02
2018-11-14T22:05:51.753Z,20.75
2018-11-14T22:08:26.611Z,20.85
2018-11-14T22:11:00.875Z,20.15
2018-11-14T22:13:35.916Z,19.25
2018-11-14T22:16:10.376Z,19.82
2018-11-14T22:18:44.767Z,20.02
2018-11-14T22:21:19.118Z,18.57
2018-11-14T22:23:53.453Z,20.77
2018-11-14T22:26:27.856Z,20.02
2018-11-14T22:29:02.211Z,20.10
2018-11-14T22:31:36.501Z,20.80
2018-11-14T22:34:10.695Z,18.45
2018-11-14T22:36:45.141Z,18.87
2018-11-14T22:39:19.359Z,19.30
2018-11-14T22:41:53.680Z,19.20
2018-11-14T22:44:28.107Z,20.05
2018-11-14T22:47:02.528Z,21.42
2018-11-14T22:49:36.960Z,20.52
2018-11-14T22:52:11.220Z,19.05
2018-11-14T22:54:45.617Z,19.57
2018-11-14T22:57:19.897Z,19.17
2018-11-14T22:59:54.293Z,19.82
2018-11-14T23:02:28.498Z,19.00
2018-11-14T23:05:02.908Z,18.95
2018-11-14T23:07:37.241Z,18.42
2018-11-14T23:10:11.487Z,18.25
2018-11-14T23:12:46.143Z,17.35
2018-11-14T23:15:21.150Z,18.05
2018-11-14T23:17:55.344Z,18.07
2018-11-14T23:20:29.651Z,16.67
2018-11-14T23:23:04.426Z,17.35
2018-11-14T23:25:38.869Z,18.95
2018-11-14T23:28:13.449Z,19.30
2018-11-14T23:30:48.475Z,19.70
2018-11-14T23:33:22.976Z,18.67
2018-11-14T23:35:57.381Z,17.90
2018-11-14T23:38:32.034Z,18.25
2018-11-14T23:41:06.704Z,19.60
2018-11-14T23:43:41.072Z,17.30
2018-11-14T23:46:16.400Z,19.77
2018-11-14T23:48:50.945Z,18.87
2018-11-14T23:51:25.442Z,20.00
2018-11-14T23:54:00.364Z,20.90
2018-11-14T23:56:35.327Z,18.50
2018-11-14T23:59:09.968Z,19.92
